sensor_id;sensor_type;location;lat;lon;timestamp;pressure;altitude;pressure_sealevel;temperature;humidity
58973;BME280;44750;52.040;7.472;2023-10-09T00:02:09;101189.75;;;13.72;nan
58973;BME280;44750;52.040;7.472;2023-10-09T00:07:09;101197.16;;;13.62;nan
58973;BME280;44750;52.040;7.472;2023-10-09T00:12:19;101195.25;;;13.54;nan
58973;BME280;44750;52.040;7.472;2023-10-09T00:17:20;101236.63;;;13.66;nan
58973;BME280;44750;52.040;7.472;2023-10-09T00:22:20;101248.22;;;13.68;nan
58973;BME280;44750;52.040;7.472;2023-10-09T00:27:21;101310.38;;;13.81;nan
58973;BME280;44750;52.040;7.472;2023-10-09T00:32:21;101356.91;;;13.96;nan
58973;BME280;44750;52.040;7.472;2023-10-09T00:37:21;101422.59;;;14.27;nan
58973;BME280;44750;52.040;7.472;2023-10-09T00:42:22;101462.72;;;14.43;nan
58973;BME280;44750;52.040;7.472;2023-10-09T00:47:23;101551.97;;;14.67;nan
58973;BME280;44750;52.040;7.472;2023-10-09T00:52:24;101638.91;;;14.97;nan
58973;BME280;44750;52.040;7.472;2023-10-09T00:57:25;101670.63;;;15.06;nan
58973;BME280;44750;52.040;7.472;2023-10-09T01:02:27;101705.47;;;15.12;nan
58973;BME280;44750;52.040;7.472;2023-10-09T01:07:27;101737.19;;;15.13;nan
58973;BME280;44750;52.040;7.472;2023-10-09T01:12:28;101764.28;;;15.15;nan
58973;BME280;44750;52.040;7.472;2023-10-09T01:17:28;101799.97;;;15.21;nan
58973;BME280;44750;52.040;7.472;2023-10-09T01:22:28;101821.47;;;15.25;nan
58973;BME280;44750;52.040;7.472;2023-10-09T01:27:29;101830.53;;;15.25;nan
58973;BME280;44750;52.040;7.472;2023-10-09T01:32:29;101861.59;;;15.32;nan
58973;BME280;44750;52.040;7.472;2023-10-09T01:37:29;101861.59;;;15.32;nan
58973;BME280;44750;52.040;7.472;2023-10-09T01:42:29;101884.22;;;15.43;nan
58973;BME280;44750;52.040;7.472;2023-10-09T01:47:29;101876.81;;;15.35;nan
58973;BME280;44750;52.040;7.472;2023-10-09T01:52:31;101890.84;;;15.40;nan
58973;BME280;44750;52.040;7.472;2023-10-09T01:57:31;101901.44;;;15.43;nan
58973;BME280;44750;52.040;7.472;2023-10-09T02:02:31;101898.41;;;15.46;nan
58973;BME280;44750;52.040;7.472;2023-10-09T02:07:31;101900.59;;;15.43;nan
58973;BME280;44750;52.040;7.472;2023-10-09T02:12:32;101914.31;;;15.51;nan
58973;BME280;44750;52.040;7.472;2023-10-09T02:17:32;101928.91;;;15.60;nan
58973;BME280;44750;52.040;7.472;2023-10-09T02:22:32;101924.28;;;15.60;nan
58973;BME280;44750;52.040;7.472;2023-10-09T02:27:32;101921.41;;;15.62;nan
58973;BME280;44750;52.040;7.472;2023-10-09T02:32:32;101901.13;;;15.64;nan
58973;BME280;44750;52.040;7.472;2023-10-09T02:37:33;101913.81;;;15.74;nan
58973;BME280;44750;52.040;7.472;2023-10-09T02:42:33;101883.13;;;15.71;nan
58973;BME280;44750;52.040;7.472;2023-10-09T02:47:33;101853.94;;;15.72;nan
58973;BME280;44750;52.040;7.472;2023-10-09T02:52:33;101830.06;;;15.74;nan
58973;BME280;44750;52.040;7.472;2023-10-09T02:57:33;101823.56;;;15.75;nan
58973;BME280;44750;52.040;7.472;2023-10-09T03:02:34;101814.91;;;15.80;nan
58973;BME280;44750;52.040;7.472;2023-10-09T03:07:35;101817.91;;;15.86;nan
58973;BME280;44750;52.040;7.472;2023-10-09T03:12:35;101800.50;;;15.87;nan
58973;BME280;44750;52.040;7.472;2023-10-09T03:17:37;101764.31;;;15.85;nan
58973;BME280;44750;52.040;7.472;2023-10-09T03:22:38;101745.91;;;15.87;nan
58973;BME280;44750;52.040;7.472;2023-10-09T03:27:39;101736.81;;;15.87;nan
58973;BME280;44750;52.040;7.472;2023-10-09T03:32:40;101735.28;;;15.84;nan
58973;BME280;44750;52.040;7.472;2023-10-09T03:37:40;101754.22;;;15.86;nan
58973;BME280;44750;52.040;7.472;2023-10-09T03:42:40;101800.38;;;15.97;nan
58973;BME280;44750;52.040;7.472;2023-10-09T03:47:41;101794.22;;;15.95;nan
58973;BME280;44750;52.040;7.472;2023-10-09T03:52:41;101802.59;;;16.02;nan
58973;BME280;44750;52.040;7.472;2023-10-09T03:57:41;101815.59;;;16.00;nan
58973;BME280;44750;52.040;7.472;2023-10-09T04:02:41;101848.03;;;16.03;nan
58973;BME280;44750;52.040;7.472;2023-10-09T04:07:42;101796.06;;;15.86;nan
58973;BME280;44750;52.040;7.472;2023-10-09T04:12:42;101867.91;;;16.13;nan
58973;BME280;44750;52.040;7.472;2023-10-09T04:17:42;101875.25;;;16.13;nan
58973;BME280;44750;52.040;7.472;2023-10-09T04:22:43;101888.72;;;16.14;nan
58973;BME280;44750;52.040;7.472;2023-10-09T04:27:44;101865.78;;;16.07;nan
58973;BME280;44750;52.040;7.472;2023-10-09T04:32:45;101872.81;;;16.10;nan
58973;BME280;44750;52.040;7.472;2023-10-09T04:37:45;101889.56;;;16.15;nan
58973;BME280;44750;52.040;7.472;2023-10-09T04:42:46;101895.88;;;16.15;nan
58973;BME280;44750;52.040;7.472;2023-10-09T04:47:47;101907.16;;;16.12;nan
58973;BME280;44750;52.040;7.472;2023-10-09T04:52:47;101931.78;;;16.20;nan
58973;BME280;44750;52.040;7.472;2023-10-09T04:57:48;101950.06;;;16.20;nan
58973;BME280;44750;52.040;7.472;2023-10-09T05:02:52;101964.09;;;16.25;nan
58973;BME280;44750;52.040;7.472;2023-10-09T05:07:53;101962.22;;;16.26;nan
58973;BME280;44750;52.040;7.472;2023-10-09T05:12:54;101953.00;;;16.27;nan
58973;BME280;44750;52.040;7.472;2023-10-09T05:17:54;101961.91;;;16.29;nan
58973;BME280;44750;52.040;7.472;2023-10-09T05:22:54;101972.84;;;16.29;nan
58973;BME280;44750;52.040;7.472;2023-10-09T05:27:54;101989.22;;;16.29;nan
58973;BME280;44750;52.040;7.472;2023-10-09T05:32:55;102000.47;;;16.26;nan
58973;BME280;44750;52.040;7.472;2023-10-09T05:37:56;102013.44;;;16.24;nan
58973;BME280;44750;52.040;7.472;2023-10-09T05:42:56;102020.06;;;16.21;nan
58973;BME280;44750;52.040;7.472;2023-10-09T05:47:56;102030.44;;;16.17;nan
58973;BME280;44750;52.040;7.472;2023-10-09T05:52:57;102048.84;;;16.15;nan
58973;BME280;44750;52.040;7.472;2023-10-09T05:57:57;102085.41;;;16.14;nan
58973;BME280;44750;52.040;7.472;2023-10-09T06:02:58;102106.56;;;16.12;nan
58973;BME280;44750;52.040;7.472;2023-10-09T06:07:58;102136.59;;;16.12;nan
58973;BME280;44750;52.040;7.472;2023-10-09T06:12:58;102163.31;;;16.18;nan
58973;BME280;44750;52.040;7.472;2023-10-09T06:17:58;102161.25;;;16.20;nan
58973;BME280;44750;52.040;7.472;2023-10-09T06:22:59;102165.16;;;16.18;nan
58973;BME280;44750;52.040;7.472;2023-10-09T06:27:59;102186.31;;;16.16;nan
58973;BME280;44750;52.040;7.472;2023-10-09T06:32:59;102195.28;;;16.08;nan
58973;BME280;44750;52.040;7.472;2023-10-09T06:38:00;102219.03;;;16.08;nan
58973;BME280;44750;52.040;7.472;2023-10-09T06:43:00;102247.91;;;16.10;nan
58973;BME280;44750;52.040;7.472;2023-10-09T06:48:00;102264.97;;;16.12;nan
58973;BME280;44750;52.040;7.472;2023-10-09T06:53:00;102297.47;;;16.15;nan
58973;BME280;44750;52.040;7.472;2023-10-09T06:58:01;102303.38;;;16.11;nan
58973;BME280;44750;52.040;7.472;2023-10-09T07:03:02;102350.56;;;16.13;nan
58973;BME280;44750;52.040;7.472;2023-10-09T07:08:02;102403.72;;;16.18;nan
58973;BME280;44750;52.040;7.472;2023-10-09T07:13:02;102430.44;;;16.25;nan
58973;BME280;44750;52.040;7.472;2023-10-09T07:18:03;102415.06;;;16.24;nan
58973;BME280;44750;52.040;7.472;2023-10-09T07:23:03;102403.09;;;16.25;nan
58973;BME280;44750;52.040;7.472;2023-10-09T07:28:04;102436.63;;;16.27;nan
58973;BME280;44750;52.040;7.472;2023-10-09T07:33:06;102467.09;;;16.32;nan
58973;BME280;44750;52.040;7.472;2023-10-09T07:38:06;102478.59;;;16.35;nan
58973;BME280;44750;52.040;7.472;2023-10-09T07:43:07;102466.09;;;16.33;nan
58973;BME280;44750;52.040;7.472;2023-10-09T07:48:07;102503.06;;;16.37;nan
58973;BME280;44750;52.040;7.472;2023-10-09T07:53:07;102504.91;;;16.36;nan
58973;BME280;44750;52.040;7.472;2023-10-09T07:58:07;102500.00;;;16.40;nan
58973;BME280;44750;52.040;7.472;2023-10-09T08:03:09;102523.59;;;16.41;nan
58973;BME280;44750;52.040;7.472;2023-10-09T08:08:09;102545.59;;;16.49;nan
58973;BME280;44750;52.040;7.472;2023-10-09T08:13:09;102539.41;;;16.47;nan
58973;BME280;44750;52.040;7.472;2023-10-09T08:18:09;102548.31;;;16.49;nan
58973;BME280;44750;52.040;7.472;2023-10-09T08:23:09;102598.81;;;16.55;nan
58973;BME280;44750;52.040;7.472;2023-10-09T08:28:10;102604.72;;;16.50;nan
58973;BME280;44750;52.040;7.472;2023-10-09T08:33:10;102611.63;;;16.54;nan
58973;BME280;44750;52.040;7.472;2023-10-09T08:38:10;102616.50;;;16.51;nan
58973;BME280;44750;52.040;7.472;2023-10-09T08:43:15;102627.44;;;16.51;nan
58973;BME280;44750;52.040;7.472;2023-10-09T08:48:16;102635.66;;;16.61;nan
58973;BME280;44750;52.040;7.472;2023-10-09T08:53:16;102618.81;;;16.65;nan
58973;BME280;44750;52.040;7.472;2023-10-09T08:58:17;102600.09;;;16.70;nan
58973;BME280;44750;52.040;7.472;2023-10-09T09:03:18;102623.22;;;16.76;nan
58973;BME280;44750;52.040;7.472;2023-10-09T09:08:23;102645.13;;;16.96;nan
58973;BME280;44750;52.040;7.472;2023-10-09T09:13:24;102611.81;;;17.00;nan
58973;BME280;44750;52.040;7.472;2023-10-09T09:18:25;102581.31;;;16.85;nan
58973;BME280;44750;52.040;7.472;2023-10-09T09:23:25;102616.91;;;17.23;nan
58973;BME280;44750;52.040;7.472;2023-10-09T09:28:26;102610.91;;;17.19;nan
58973;BME280;44750;52.040;7.472;2023-10-09T09:33:27;102594.19;;;17.23;nan
58973;BME280;44750;52.040;7.472;2023-10-09T09:38:28;102605.94;;;17.33;nan
58973;BME280;44750;52.040;7.472;2023-10-09T09:43:29;102586.38;;;17.28;nan
58973;BME280;44750;52.040;7.472;2023-10-09T09:48:31;102602.47;;;17.31;nan
58973;BME280;44750;52.040;7.472;2023-10-09T09:53:32;102618.16;;;17.38;nan
58973;BME280;44750;52.040;7.472;2023-10-09T09:58:33;102603.31;;;17.41;nan
58973;BME280;44750;52.040;7.472;2023-10-09T10:03:38;102579.53;;;17.42;nan
58973;BME280;44750;52.040;7.472;2023-10-09T10:08:41;102574.59;;;17.45;nan
58973;BME280;44750;52.040;7.472;2023-10-09T10:18:56;102565.78;;;17.51;nan
58973;BME280;44750;52.040;7.472;2023-10-09T10:23:56;102571.88;;;17.63;nan
58973;BME280;44750;52.040;7.472;2023-10-09T10:29:19;102546.72;;;17.78;nan
58973;BME280;44750;52.040;7.472;2023-10-09T10:34:20;102539.03;;;17.81;nan
58973;BME280;44750;52.040;7.472;2023-10-09T10:39:22;102527.16;;;17.91;nan
58973;BME280;44750;52.040;7.472;2023-10-09T10:44:33;102509.25;;;17.96;nan
58973;BME280;44750;52.040;7.472;2023-10-09T10:49:34;102483.56;;;17.97;nan
58973;BME280;44750;52.040;7.472;2023-10-09T10:54:34;102471.31;;;18.10;nan
58973;BME280;44750;52.040;7.472;2023-10-09T10:59:40;102436.78;;;18.17;nan
58973;BME280;44750;52.040;7.472;2023-10-09T11:04:45;102411.66;;;18.30;nan
58973;BME280;44750;52.040;7.472;2023-10-09T11:09:50;102385.00;;;18.40;nan
58973;BME280;44750;52.040;7.472;2023-10-09T11:14:51;102330.81;;;18.34;nan
58973;BME280;44750;52.040;7.472;2023-10-09T11:19:55;102302.41;;;18.43;nan
58973;BME280;44750;52.040;7.472;2023-10-09T11:24:56;102269.00;;;18.40;nan
58973;BME280;44750;52.040;7.472;2023-10-09T11:29:56;102246.38;;;18.46;nan
58973;BME280;44750;52.040;7.472;2023-10-09T11:35:14;102217.41;;;18.43;nan
58973;BME280;44750;52.040;7.472;2023-10-09T11:40:32;102185.53;;;18.34;nan
58973;BME280;44750;52.040;7.472;2023-10-09T11:45:32;102203.69;;;18.43;nan
58973;BME280;44750;52.040;7.472;2023-10-09T11:50:39;102185.56;;;18.42;nan
58973;BME280;44750;52.040;7.472;2023-10-09T11:55:41;102157.78;;;18.45;nan
58973;BME280;44750;52.040;7.472;2023-10-09T12:00:42;102156.06;;;18.52;nan
58973;BME280;44750;52.040;7.472;2023-10-09T12:05:42;102142.72;;;18.66;nan
58973;BME280;44750;52.040;7.472;2023-10-09T12:10:43;102117.00;;;18.67;nan
58973;BME280;44750;52.040;7.472;2023-10-09T12:15:43;102090.28;;;18.61;nan
58973;BME280;44750;52.040;7.472;2023-10-09T12:20:43;102102.59;;;18.81;nan
58973;BME280;44750;52.040;7.472;2023-10-09T12:25:44;102053.25;;;18.73;nan
58973;BME280;44750;52.040;7.472;2023-10-09T12:30:44;102052.22;;;18.74;nan
58973;BME280;44750;52.040;7.472;2023-10-09T12:35:44;102072.41;;;19.06;nan
58973;BME280;44750;52.040;7.472;2023-10-09T12:40:45;102036.53;;;19.08;nan
58973;BME280;44750;52.040;7.472;2023-10-09T12:45:46;101984.97;;;18.95;nan
58973;BME280;44750;52.040;7.472;2023-10-09T12:50:49;101980.78;;;19.07;nan
58973;BME280;44750;52.040;7.472;2023-10-09T12:55:50;101962.75;;;19.13;nan
58973;BME280;44750;52.040;7.472;2023-10-09T13:00:51;101959.16;;;19.12;nan
58973;BME280;44750;52.040;7.472;2023-10-09T13:05:53;101937.50;;;19.17;nan
58973;BME280;44750;52.040;7.472;2023-10-09T13:10:54;101940.19;;;19.26;nan
58973;BME280;44750;52.040;7.472;2023-10-09T13:15:54;101925.25;;;19.28;nan
58973;BME280;44750;52.040;7.472;2023-10-09T13:20:56;101910.88;;;19.26;nan
58973;BME280;44750;52.040;7.472;2023-10-09T13:25:59;101895.31;;;19.18;nan
58973;BME280;44750;52.040;7.472;2023-10-09T13:30:59;101886.06;;;19.11;nan
58973;BME280;44750;52.040;7.472;2023-10-09T13:35:59;101888.47;;;19.14;nan
58973;BME280;44750;52.040;7.472;2023-10-09T13:41:00;101906.09;;;19.20;nan
58973;BME280;44750;52.040;7.472;2023-10-09T13:46:00;101887.59;;;19.14;nan
58973;BME280;44750;52.040;7.472;2023-10-09T13:51:00;101919.31;;;19.25;nan
58973;BME280;44750;52.040;7.472;2023-10-09T13:56:02;101926.13;;;19.29;nan
58973;BME280;44750;52.040;7.472;2023-10-09T14:01:02;101890.31;;;19.22;nan
58973;BME280;44750;52.040;7.472;2023-10-09T14:06:02;101895.63;;;19.24;nan
58973;BME280;44750;52.040;7.472;2023-10-09T14:11:04;101905.56;;;19.25;nan
58973;BME280;44750;52.040;7.472;2023-10-09T14:16:05;101928.44;;;19.40;nan
58973;BME280;44750;52.040;7.472;2023-10-09T14:21:05;101933.16;;;19.54;nan
58973;BME280;44750;52.040;7.472;2023-10-09T14:26:07;101938.50;;;19.71;nan
58973;BME280;44750;52.040;7.472;2023-10-09T14:31:07;101922.28;;;19.84;nan
58973;BME280;44750;52.040;7.472;2023-10-09T14:36:07;101870.81;;;19.78;nan
58973;BME280;44750;52.040;7.472;2023-10-09T14:41:08;101835.19;;;19.70;nan
58973;BME280;44750;52.040;7.472;2023-10-09T14:46:13;101833.81;;;19.66;nan
58973;BME280;44750;52.040;7.472;2023-10-09T14:51:13;101806.16;;;19.52;nan
58973;BME280;44750;52.040;7.472;2023-10-09T14:56:13;101804.16;;;19.46;nan
58973;BME280;44750;52.040;7.472;2023-10-09T15:01:14;101812.09;;;19.41;nan
58973;BME280;44750;52.040;7.472;2023-10-09T15:06:14;101823.09;;;19.41;nan
58973;BME280;44750;52.040;7.472;2023-10-09T15:11:14;101834.06;;;19.41;nan
58973;BME280;44750;52.040;7.472;2023-10-09T15:16:14;101828.66;;;19.33;nan
58973;BME280;44750;52.040;7.472;2023-10-09T15:21:15;101836.19;;;19.31;nan
58973;BME280;44750;52.040;7.472;2023-10-09T15:26:15;101857.97;;;19.32;nan
58973;BME280;44750;52.040;7.472;2023-10-09T15:31:22;101874.44;;;19.32;nan
58973;BME280;44750;52.040;7.472;2023-10-09T15:36:23;101893.47;;;19.34;nan
58973;BME280;44750;52.040;7.472;2023-10-09T15:41:23;101899.66;;;19.36;nan
58973;BME280;44750;52.040;7.472;2023-10-09T15:46:23;101912.53;;;19.35;nan
58973;BME280;44750;52.040;7.472;2023-10-09T15:51:24;101926.41;;;19.34;nan
58973;BME280;44750;52.040;7.472;2023-10-09T15:56:24;101934.66;;;19.34;nan
58973;BME280;44750;52.040;7.472;2023-10-09T16:01:24;101927.16;;;19.28;nan
58973;BME280;44750;52.040;7.472;2023-10-09T16:06:25;101938.00;;;19.21;nan
58973;BME280;44750;52.040;7.472;2023-10-09T16:11:25;101953.28;;;19.24;nan
58973;BME280;44750;52.040;7.472;2023-10-09T16:16:26;101943.38;;;19.14;nan
58973;BME280;44750;52.040;7.472;2023-10-09T16:21:27;101955.06;;;19.08;nan
58973;BME280;44750;52.040;7.472;2023-10-09T16:26:27;101971.00;;;19.04;nan
58973;BME280;44750;52.040;7.472;2023-10-09T16:31:27;101982.88;;;19.05;nan
58973;BME280;44750;52.040;7.472;2023-10-09T16:36:28;101990.78;;;19.00;nan
58973;BME280;44750;52.040;7.472;2023-10-09T16:41:28;102005.34;;;19.00;nan
58973;BME280;44750;52.040;7.472;2023-10-09T16:46:29;102024.53;;;19.00;nan
58973;BME280;44750;52.040;7.472;2023-10-09T16:51:29;102033.31;;;18.96;nan
58973;BME280;44750;52.040;7.472;2023-10-09T16:56:29;102040.53;;;18.97;nan
58973;BME280;44750;52.040;7.472;2023-10-09T17:01:29;102053.91;;;18.92;nan
58973;BME280;44750;52.040;7.472;2023-10-09T17:06:30;102070.84;;;18.95;nan
58973;BME280;44750;52.040;7.472;2023-10-09T17:11:30;102064.88;;;18.92;nan
58973;BME280;44750;52.040;7.472;2023-10-09T17:16:30;102077.91;;;18.90;nan
58973;BME280;44750;52.040;7.472;2023-10-09T17:21:31;102084.75;;;18.85;nan
58973;BME280;44750;52.040;7.472;2023-10-09T17:26:31;102096.75;;;18.84;nan
58973;BME280;44750;52.040;7.472;2023-10-09T17:31:33;102118.75;;;18.93;nan
58973;BME280;44750;52.040;7.472;2023-10-09T17:36:33;102115.63;;;18.87;nan
58973;BME280;44750;52.040;7.472;2023-10-09T17:41:33;102137.25;;;18.91;nan
58973;BME280;44750;52.040;7.472;2023-10-09T17:46:33;102138.94;;;18.83;nan
58973;BME280;44750;52.040;7.472;2023-10-09T17:51:34;102154.34;;;18.84;nan
58973;BME280;44750;52.040;7.472;2023-10-09T17:56:34;102153.88;;;18.81;nan
58973;BME280;44750;52.040;7.472;2023-10-09T18:01:34;102156.09;;;18.77;nan
58973;BME280;44750;52.040;7.472;2023-10-09T18:06:35;102163.47;;;18.77;nan
58973;BME280;44750;52.040;7.472;2023-10-09T18:11:36;102169.28;;;18.74;nan
58973;BME280;44750;52.040;7.472;2023-10-09T18:16:36;102177.50;;;18.65;nan
58973;BME280;44750;52.040;7.472;2023-10-09T18:21:36;102209.41;;;18.66;nan
58973;BME280;44750;52.040;7.472;2023-10-09T18:26:36;102233.22;;;18.66;nan
58973;BME280;44750;52.040;7.472;2023-10-09T18:31:37;102229.44;;;18.59;nan
58973;BME280;44750;52.040;7.472;2023-10-09T18:36:39;102255.50;;;18.63;nan
58973;BME280;44750;52.040;7.472;2023-10-09T18:41:41;102265.44;;;18.64;nan
58973;BME280;44750;52.040;7.472;2023-10-09T18:46:42;102267.19;;;18.65;nan
58973;BME280;44750;52.040;7.472;2023-10-09T18:51:42;102259.63;;;18.59;nan
58973;BME280;44750;52.040;7.472;2023-10-09T18:56:43;102276.25;;;18.57;nan
58973;BME280;44750;52.040;7.472;2023-10-09T19:01:44;102276.72;;;18.52;nan
58973;BME280;44750;52.040;7.472;2023-10-09T19:06:48;102306.38;;;18.49;nan
58973;BME280;44750;52.040;7.472;2023-10-09T19:11:52;102323.34;;;18.52;nan
58973;BME280;44750;52.040;7.472;2023-10-09T19:16:54;102316.66;;;18.47;nan
58973;BME280;44750;52.040;7.472;2023-10-09T19:21:54;102343.91;;;18.48;nan
58973;BME280;44750;52.040;7.472;2023-10-09T19:26:55;102367.91;;;18.46;nan
58973;BME280;44750;52.040;7.472;2023-10-09T19:31:55;102383.34;;;18.47;nan
58973;BME280;44750;52.040;7.472;2023-10-09T19:36:55;102382.44;;;18.38;nan
58973;BME280;44750;52.040;7.472;2023-10-09T19:41:55;102385.50;;;18.35;nan
58973;BME280;44750;52.040;7.472;2023-10-09T19:46:55;102405.53;;;18.36;nan
58973;BME280;44750;52.040;7.472;2023-10-09T19:51:56;102417.91;;;18.40;nan
58973;BME280;44750;52.040;7.472;2023-10-09T19:56:56;102427.13;;;18.39;nan
58973;BME280;44750;52.040;7.472;2023-10-09T20:01:56;102440.47;;;18.34;nan
58973;BME280;44750;52.040;7.472;2023-10-09T20:07:00;102469.31;;;18.38;nan
58973;BME280;44750;52.040;7.472;2023-10-09T20:12:01;102488.50;;;18.38;nan
58973;BME280;44750;52.040;7.472;2023-10-09T20:17:01;102489.81;;;18.34;nan
58973;BME280;44750;52.040;7.472;2023-10-09T20:22:02;102515.75;;;18.40;nan
58973;BME280;44750;52.040;7.472;2023-10-09T20:27:02;102510.06;;;18.33;nan
58973;BME280;44750;52.040;7.472;2023-10-09T20:32:03;102526.50;;;18.33;nan
58973;BME280;44750;52.040;7.472;2023-10-09T20:37:03;102539.16;;;18.34;nan
58973;BME280;44750;52.040;7.472;2023-10-09T20:42:04;102537.47;;;18.33;nan
58973;BME280;44750;52.040;7.472;2023-10-09T20:47:05;102523.69;;;18.25;nan
58973;BME280;44750;52.040;7.472;2023-10-09T20:52:05;102547.66;;;18.23;nan
58973;BME280;44750;52.040;7.472;2023-10-09T20:57:05;102522.22;;;18.12;nan
58973;BME280;44750;52.040;7.472;2023-10-09T21:02:05;102538.28;;;18.07;nan
58973;BME280;44750;52.040;7.472;2023-10-09T21:07:06;102544.41;;;18.01;nan
58973;BME280;44750;52.040;7.472;2023-10-09T21:12:06;102570.06;;;18.00;nan
58973;BME280;44750;52.040;7.472;2023-10-09T21:17:06;102583.44;;;18.03;nan
58973;BME280;44750;52.040;7.472;2023-10-09T21:22:08;102585.03;;;18.05;nan
58973;BME280;44750;52.040;7.472;2023-10-09T21:27:08;102612.66;;;18.12;nan
58973;BME280;44750;52.040;7.472;2023-10-09T21:32:08;102605.16;;;18.14;nan
58973;BME280;44750;52.040;7.472;2023-10-09T21:37:08;102603.97;;;18.17;nan
58973;BME280;44750;52.040;7.472;2023-10-09T21:42:09;102579.78;;;18.12;nan
58973;BME280;44750;52.040;7.472;2023-10-09T21:47:10;102569.47;;;18.06;nan
58973;BME280;44750;52.040;7.472;2023-10-09T21:52:10;102563.41;;;18.02;nan
58973;BME280;44750;52.040;7.472;2023-10-09T21:57:11;102566.50;;;17.99;nan
58973;BME280;44750;52.040;7.472;2023-10-09T22:02:12;102584.56;;;18.10;nan
58973;BME280;44750;52.040;7.472;2023-10-09T22:07:12;102571.16;;;18.07;nan
58973;BME280;44750;52.040;7.472;2023-10-09T22:12:13;102573.03;;;18.07;nan
58973;BME280;44750;52.040;7.472;2023-10-09T22:17:13;102555.38;;;18.01;nan
58973;BME280;44750;52.040;7.472;2023-10-09T22:22:13;102533.38;;;17.93;nan
58973;BME280;44750;52.040;7.472;2023-10-09T22:27:14;102524.56;;;17.89;nan
58973;BME280;44750;52.040;7.472;2023-10-09T22:32:14;102504.59;;;17.79;nan
58973;BME280;44750;52.040;7.472;2023-10-09T22:37:14;102510.09;;;17.79;nan
58973;BME280;44750;52.040;7.472;2023-10-09T22:42:14;102521.28;;;17.85;nan
58973;BME280;44750;52.040;7.472;2023-10-09T22:47:15;102481.91;;;17.68;nan
58973;BME280;44750;52.040;7.472;2023-10-09T22:52:15;102487.94;;;17.72;nan
58973;BME280;44750;52.040;7.472;2023-10-09T22:57:15;102487.78;;;17.74;nan
58973;BME280;44750;52.040;7.472;2023-10-09T23:02:16;102479.72;;;17.72;nan
58973;BME280;44750;52.040;7.472;2023-10-09T23:07:16;102479.97;;;17.79;nan
58973;BME280;44750;52.040;7.472;2023-10-09T23:12:21;102469.16;;;17.77;nan
58973;BME280;44750;52.040;7.472;2023-10-09T23:17:22;102457.19;;;17.78;nan
58973;BME280;44750;52.040;7.472;2023-10-09T23:22:22;102434.50;;;17.68;nan
58973;BME280;44750;52.040;7.472;2023-10-09T23:27:24;102435.53;;;17.67;nan
58973;BME280;44750;52.040;7.472;2023-10-09T23:32:24;102412.38;;;17.61;nan
58973;BME280;44750;52.040;7.472;2023-10-09T23:37:25;102377.00;;;17.50;nan
58973;BME280;44750;52.040;7.472;2023-10-09T23:42:25;102391.03;;;17.47;nan
58973;BME280;44750;52.040;7.472;2023-10-09T23:47:26;102388.13;;;17.48;nan
58973;BME280;44750;52.040;7.472;2023-10-09T23:52:26;102407.00;;;17.51;nan
58973;BME280;44750;52.040;7.472;2023-10-09T23:57:28;102419.34;;;17.55;nan
